Doonan Corners, New York
Current Conditions -  °F | °C
As of 10:55 PM on Tuesday 27 Jan 2015 (Local Time) from KMSV Reporting Station
Few Clouds Few Clouds  
Wind Chill: -6°   Ceiling: Unl
Heat Index: 10°   Visibility: 10mi
Dew Point:   Wind: 15mph
Humidity: 67%   Direction: 320°NW
Pressure: 29.78"   Gusts: 26mph
Location:  42.3649°N, 74.7968°W
Report Text: KMSV 280355Z AUTO 32013G23KT 10SM FEW120 M12/M17 A2978 RMK AO1
Loading
Personal Weather Stations






























Interactive Weather Map New forecast layout! Learn more

10-Day Weather Forecast

Advertisements
Track Severe Weather on mobile